Time;durP1;ratioP1;P1;durP2;ratioP2;P2;SDS_P1;SDS_P2;PMS_P1;PMS_P2;Temp;Humidity;BMP_temperature;BMP_pressure;BME280_temperature;BME280_humidity;BME280_pressure;Samples;Min_cycle;Max_cycle;Signal;HPM_P1;HPM_P2
2023/10/23 00:01:58;;;;;;;;;;;;;;;13.88;62.23;100239.25;6095061;23;6738;-73
2023/10/23 00:04:24;;;;;;;;;;;;;;;13.82;62.22;100243.34;6093442;23;6865;-72
2023/10/23 00:06:49;;;;;;;;;;;;;;;13.78;62.62;100241.47;6070216;23;7008;-72
2023/10/23 00:09:15;;;;;;;;;;;;;;;13.74;62.57;100243.94;6094119;23;6942;-73
2023/10/23 00:11:41;;;;;;;;;;;;;;;13.72;62.48;100244.72;6093804;23;6758;-73
2023/10/23 00:14:06;;;;;;;;;;;;;;;13.69;62.73;100250.63;6114422;23;6855;-73
2023/10/23 00:16:32;;;;;;;;;;;;;;;13.68;62.57;100254.03;6129173;23;6839;-72
2023/10/23 00:18:57;;;;;;;;;;;;;;;13.66;62.23;100252.22;6128372;23;7009;-72
2023/10/23 00:21:23;;;;;;;;;;;;;;;13.64;62.30;100248.75;6128882;23;7483;-73
2023/10/23 00:23:49;;;;;;;;;;;;;;;13.61;63.41;100250.41;6128619;23;6766;-72
2023/10/23 00:26:15;;;;;;;;;;;;;;;13.61;62.80;100252.97;6155373;23;6842;-73
2023/10/23 00:28:41;;;;;;;;;;;;;;;13.59;63.12;100252.06;6129637;23;6767;-73
2023/10/23 00:31:06;;;;;;;;;;;;;;;13.60;62.62;100258.06;6128106;23;6939;-73
2023/10/23 00:33:32;;;;;;;;;;;;;;;13.60;62.98;100265.78;6102117;23;8463;-72
2023/10/23 00:35:57;;;;;;;;;;;;;;;13.58;63.63;100262.28;6125158;23;6907;-72
2023/10/23 00:38:23;;;;;;;;;;;;;;;13.58;63.49;100263.19;6126547;23;6766;-73
2023/10/23 00:40:49;;;;;;;;;;;;;;;13.58;62.83;100263.19;6099643;23;6933;-72
2023/10/23 00:43:23;;;;;;;;;;;;;;;13.58;62.94;100262.28;6154376;23;6750;-72
2023/10/23 00:45:57;;;;;;;;;;;;;;;13.59;63.51;100274.34;6127511;23;7375;-73
2023/10/23 00:48:25;;;;;;;;;;;;;;;13.58;63.07;100265.75;6125959;23;6939;-73
2023/10/23 00:50:57;;;;;;;;;;;;;;;13.60;63.88;100270.94;6130062;23;6775;-73
2023/10/23 00:53:25;;;;;;;;;;;;;;;13.58;63.27;100262.28;6129670;23;6999;-71
2023/10/23 00:55:53;;;;;;;;;;;;;;;13.61;63.19;100264.97;6103384;23;7057;-72
2023/10/23 00:58:20;;;;;;;;;;;;;;;13.58;62.88;100264.88;6104988;23;7045;-72
2023/10/23 01:00:48;;;;;;;;;;;;;;;13.58;63.45;100265.75;6106809;23;6978;-72
2023/10/23 01:03:14;;;;;;;;;;;;;;;13.57;63.14;100264.00;6157423;23;6978;-72
2023/10/23 01:05:40;;;;;;;;;;;;;;;13.55;63.31;100251.91;6129497;23;6926;-73
2023/10/23 01:08:06;;;;;;;;;;;;;;;13.53;62.53;100253.56;6132081;23;6901;-73
2023/10/23 01:10:33;;;;;;;;;;;;;;;13.49;62.90;100250.00;6130006;23;7048;-73
2023/10/23 01:12:59;;;;;;;;;;;;;;;13.48;62.93;100255.97;6127999;23;6774;-72
2023/10/23 01:15:26;;;;;;;;;;;;;;;13.44;63.24;100249.84;6106310;23;7008;-73
2023/10/23 01:17:51;;;;;;;;;;;;;;;13.42;62.84;100256.63;6136786;23;6783;-74
2023/10/23 01:20:18;;;;;;;;;;;;;;;13.39;62.66;100251.34;6135548;23;6762;-74
2023/10/23 01:22:44;;;;;;;;;;;;;;;13.38;63.17;100253.88;6135476;23;6779;-74
2023/10/23 01:25:14;;;;;;;;;;;;;;;13.36;63.22;100258.06;6137488;23;6775;-74
2023/10/23 01:27:41;;;;;;;;;;;;;;;13.33;63.22;100258.88;6136113;23;6779;-74
2023/10/23 01:30:08;;;;;;;;;;;;;;;13.31;63.38;100247.63;6161925;23;6843;-74
2023/10/23 01:32:35;;;;;;;;;;;;;;;13.30;62.88;100245.88;6136445;23;6986;-74
2023/10/23 01:35:01;;;;;;;;;;;;;;;13.29;62.29;100254.41;6136603;23;7141;-73
2023/10/23 01:37:26;;;;;;;;;;;;;;;13.27;63.16;100256.06;6136784;23;6759;-74
2023/10/23 01:39:52;;;;;;;;;;;;;;;13.24;62.56;100254.25;6136709;23;6881;-74
2023/10/23 01:42:18;;;;;;;;;;;;;;;13.22;62.81;100255.03;6134467;23;6815;-74
2023/10/23 01:44:43;;;;;;;;;;;;;;;13.20;62.54;100253.28;6136082;23;7176;-74
2023/10/23 01:47:09;;;;;;;;;;;;;;;13.17;62.98;100260.91;6132835;23;6981;-73
2023/10/23 01:49:35;;;;;;;;;;;;;;;13.17;62.64;100267.72;6132559;23;6763;-74
2023/10/23 01:52:00;;;;;;;;;;;;;;;13.17;63.42;100272.88;6135190;23;6957;-74
2023/10/23 01:54:26;;;;;;;;;;;;;;;13.15;63.28;100267.69;6134110;23;6962;-74
2023/10/23 01:56:52;;;;;;;;;;;;;;;13.17;62.50;100263.47;6161235;23;6864;-74
2023/10/23 01:59:17;;;;;;;;;;;;;;;13.18;63.24;100270.38;6131977;23;6770;-74
2023/10/23 02:01:43;;;;;;;;;;;;;;;13.19;62.97;100271.25;6134312;23;6765;-74
2023/10/23 02:04:09;;;;;;;;;;;;;;;13.22;62.55;100270.47;6132974;23;6759;-73
2023/10/23 02:06:34;;;;;;;;;;;;;;;13.23;62.88;100259.34;6162801;23;6759;-74
2023/10/23 02:09:00;;;;;;;;;;;;;;;13.20;62.69;100261.00;6111187;23;8440;-74
2023/10/23 02:11:26;;;;;;;;;;;;;;;13.19;62.45;100256.66;6136219;23;6895;-74
2023/10/23 02:13:51;;;;;;;;;;;;;;;13.18;62.53;100262.66;6131286;23;6815;-74
2023/10/23 02:16:17;;;;;;;;;;;;;;;13.15;62.60;100259.09;6162145;23;6759;-73
2023/10/23 02:18:43;;;;;;;;;;;;;;;13.11;62.49;100265.81;6136009;23;6771;-73
2023/10/23 02:21:09;;;;;;;;;;;;;;;13.07;62.03;100258.81;6134421;23;6839;-73
2023/10/23 02:23:35;;;;;;;;;;;;;;;13.05;63.06;100263.91;6133663;23;6779;-73
2023/10/23 02:26:01;;;;;;;;;;;;;;;13.02;62.73;100260.34;6133349;23;6755;-76
2023/10/23 02:28:28;;;;;;;;;;;;;;;13.01;62.63;100259.47;6128022;23;7054;-75
2023/10/23 02:30:54;;;;;;;;;;;;;;;13.01;63.10;100266.31;6099643;23;6960;-76
2023/10/23 02:33:20;;;;;;;;;;;;;;;12.99;62.34;100258.56;6125720;23;6758;-75
2023/10/23 02:35:46;;;;;;;;;;;;;;;12.99;62.83;100265.38;6125522;23;6763;-75
2023/10/23 02:38:12;;;;;;;;;;;;;;;12.98;62.61;100271.34;6099791;23;7036;-75
2023/10/23 02:40:37;;;;;;;;;;;;;;;12.94;62.36;100257.50;6125592;23;6981;-75
2023/10/23 02:43:03;;;;;;;;;;;;;;;12.90;62.75;100264.22;6123413;23;6763;-75
2023/10/23 02:45:32;;;;;;;;;;;;;;;12.85;62.13;100263.19;6126393;23;6763;-76
2023/10/23 02:47:57;;;;;;;;;;;;;;;12.83;62.75;100264.81;6097807;23;7009;-75
2023/10/23 02:50:23;;;;;;;;;;;;;;;12.80;63.08;100267.28;6121727;23;6763;-75
2023/10/23 02:52:48;;;;;;;;;;;;;;;12.79;62.70;100265.53;6124011;23;6759;-76
2023/10/23 02:55:14;;;;;;;;;;;;;;;12.77;62.37;100262.03;6124723;23;6758;-76
2023/10/23 02:57:40;;;;;;;;;;;;;;;12.75;62.82;100261.97;6127129;23;6763;-74
2023/10/23 03:00:07;;;;;;;;;;;;;;;12.73;62.24;100262.72;6123373;23;6759;-74
2023/10/23 03:02:33;;;;;;;;;;;;;;;12.69;63.11;100258.31;6123689;23;6830;-74
2023/10/23 03:04:59;;;;;;;;;;;;;;;12.68;62.41;100269.41;6097406;23;6774;-75
2023/10/23 03:07:25;;;;;;;;;;;;;;;12.64;62.90;100271.00;6123762;23;7088;-75
2023/10/23 03:09:51;;;;;;;;;;;;;;;12.61;62.06;100273.47;6124502;23;6839;-75
2023/10/23 03:12:17;;;;;;;;;;;;;;;12.57;62.56;100272.47;6101423;23;6970;-75
2023/10/23 03:14:43;;;;;;;;;;;;;;;12.56;62.23;100263.00;6151957;23;6766;-76
2023/10/23 03:17:08;;;;;;;;;;;;;;;12.56;63.36;100270.72;6101658;23;6990;-74
2023/10/23 03:19:34;;;;;;;;;;;;;;;12.58;62.79;100261.34;6128703;23;7179;-75
2023/10/23 03:21:59;;;;;;;;;;;;;;;12.60;62.86;100272.56;6125824;23;7104;-75
2023/10/23 03:24:25;;;;;;;;;;;;;;;12.60;62.46;100274.25;6124151;23;8433;-75
2023/10/23 03:26:51;;;;;;;;;;;;;;;12.57;62.19;100272.47;6154655;23;6770;-75
2023/10/23 03:29:16;;;;;;;;;;;;;;;12.56;62.51;100274.97;6128260;23;6767;-75
2023/10/23 03:31:42;;;;;;;;;;;;;;;12.52;62.13;100271.41;6153802;23;6771;-75
2023/10/23 03:34:08;;;;;;;;;;;;;;;12.48;62.55;100272.97;6128278;23;6758;-76
2023/10/23 03:36:34;;;;;;;;;;;;;;;12.47;62.61;100265.22;6099336;23;6958;-72
2023/10/23 03:39:00;;;;;;;;;;;;;;;12.46;62.29;100269.47;6120341;23;6759;-72
2023/10/23 03:41:25;;;;;;;;;;;;;;;12.45;63.10;100277.13;6095723;23;6939;-72
2023/10/23 03:43:51;;;;;;;;;;;;;;;12.43;62.82;100271.94;6120061;23;7241;-72
2023/10/23 03:46:17;;;;;;;;;;;;;;;12.41;63.08;100275.25;6096444;23;7915;-72
2023/10/23 03:48:43;;;;;;;;;;;;;;;12.38;62.49;100281.16;6120275;23;7036;-72
2023/10/23 03:51:08;;;;;;;;;;;;;;;12.33;62.33;100283.53;6120544;23;6838;-73
2023/10/23 03:53:34;;;;;;;;;;;;;;;12.31;62.62;100292.00;6116267;23;6763;-72
2023/10/23 03:56:00;;;;;;;;;;;;;;;12.27;63.06;100293.59;6121084;23;6759;-73
2023/10/23 03:58:25;;;;;;;;;;;;;;;12.26;62.86;100294.38;6144871;23;6941;-72
2023/10/23 04:00:52;;;;;;;;;;;;;;;12.24;62.33;100290.03;6146309;23;6832;-73
2023/10/23 04:03:18;;;;;;;;;;;;;;;12.20;62.66;100289.03;6120482;23;6837;-72
2023/10/23 04:05:44;;;;;;;;;;;;;;;12.15;62.38;100290.53;6119916;23;6834;-72
2023/10/23 04:08:09;;;;;;;;;;;;;;;12.13;61.71;100294.72;6117933;23;7234;-72
2023/10/23 04:10:35;;;;;;;;;;;;;;;12.05;62.04;100287.59;6116926;23;6759;-72
2023/10/23 04:13:01;;;;;;;;;;;;;;;12.04;62.49;100284.97;6119968;23;6878;-72
2023/10/23 04:15:27;;;;;;;;;;;;;;;12.03;62.93;100288.38;6147094;23;6770;-73
2023/10/23 04:17:53;;;;;;;;;;;;;;;12.02;62.37;100282.34;6096013;23;6932;-72
2023/10/23 04:20:19;;;;;;;;;;;;;;;12.01;62.61;100270.28;6120730;23;6770;-72
2023/10/23 04:22:44;;;;;;;;;;;;;;;12.01;62.52;100280.56;6121807;23;7000;-72
2023/10/23 04:25:10;;;;;;;;;;;;;;;12.02;62.66;100276.28;6144710;23;6933;-73
2023/10/23 04:27:36;;;;;;;;;;;;;;;12.01;62.55;100280.56;6120162;23;6962;-72
2023/10/23 04:30:06;;;;;;;;;;;;;;;12.00;62.84;100273.66;6145678;23;7803;-72
2023/10/23 04:32:31;;;;;;;;;;;;;;;11.99;63.10;100282.19;6120256;23;6958;-73
2023/10/23 04:34:57;;;;;;;;;;;;;;;11.98;62.46;100284.69;6122902;23;6758;-72
2023/10/23 04:37:22;;;;;;;;;;;;;;;11.99;62.90;100282.19;6148085;23;7004;-72
2023/10/23 04:39:48;;;;;;;;;;;;;;;11.99;63.07;100282.19;6123707;23;6762;-72
2023/10/23 04:42:14;;;;;;;;;;;;;;;12.01;62.66;100279.66;6097852;23;6934;-72
2023/10/23 04:44:39;;;;;;;;;;;;;;;11.99;62.32;100279.63;6123184;23;8303;-72
2023/10/23 04:47:05;;;;;;;;;;;;;;;11.97;62.43;100277.78;6123999;23;6754;-72
2023/10/23 04:49:31;;;;;;;;;;;;;;;11.92;61.85;100280.19;6148069;23;7777;-72
2023/10/23 04:51:57;;;;;;;;;;;;;;;11.88;62.41;100285.97;6124935;23;6762;-73
2023/10/23 04:54:23;;;;;;;;;;;;;;;11.86;62.46;100282.47;6119145;23;7217;-73
2023/10/23 04:56:48;;;;;;;;;;;;;;;11.82;62.74;100281.47;6123665;23;7624;-73
2023/10/23 04:59:14;;;;;;;;;;;;;;;11.80;62.25;100277.97;6143893;23;6915;-73
2023/10/23 05:01:39;;;;;;;;;;;;;;;11.76;62.38;100273.53;6148480;23;7010;-73
2023/10/23 05:04:05;;;;;;;;;;;;;;;11.73;61.73;100269.16;6121915;23;7167;-74
2023/10/23 05:06:31;;;;;;;;;;;;;;;11.70;61.63;100273.28;6148481;23;7014;-73
2023/10/23 05:08:56;;;;;;;;;;;;;;;11.65;61.65;100275.66;6146073;23;6770;-73
2023/10/23 05:11:22;;;;;;;;;;;;;;;11.59;61.29;100280.53;6145724;23;7886;-74
2023/10/23 05:13:48;;;;;;;;;;;;;;;11.55;61.95;100273.53;6122747;23;6936;-73
2023/10/23 05:16:13;;;;;;;;;;;;;;;11.54;62.46;100270.09;6122647;23;7072;-73
2023/10/23 05:18:40;;;;;;;;;;;;;;;11.55;63.10;100268.38;6145591;23;8000;-73
2023/10/23 05:21:11;;;;;;;;;;;;;;;11.55;62.86;100266.72;6123041;23;6846;-73
2023/10/23 05:23:41;;;;;;;;;;;;;;;11.56;63.14;100262.44;6123577;23;6775;-73
2023/10/23 05:26:10;;;;;;;;;;;;;;;11.58;63.51;100268.50;6122785;23;6775;-73
2023/10/23 05:28:41;;;;;;;;;;;;;;;11.58;63.49;100268.50;6123497;23;6964;-73
2023/10/23 05:31:09;;;;;;;;;;;;;;;11.60;62.50;100274.59;6123226;23;6775;-73
2023/10/23 05:33:35;;;;;;;;;;;;;;;11.56;62.49;100273.59;6118421;23;6835;-73
2023/10/23 05:36:06;;;;;;;;;;;;;;;11.53;62.31;100276.91;6122072;23;7610;-73
2023/10/23 05:38:32;;;;;;;;;;;;;;;11.47;61.73;100266.38;6122387;23;6771;-73
2023/10/23 05:40:59;;;;;;;;;;;;;;;11.43;62.03;100271.31;6147078;23;6775;-73
2023/10/23 05:43:26;;;;;;;;;;;;;;;11.37;61.74;100269.34;6119469;23;7005;-73
2023/10/23 05:45:55;;;;;;;;;;;;;;;11.32;61.61;100269.16;6147501;23;7212;-73
2023/10/23 05:48:21;;;;;;;;;;;;;;;11.26;61.54;100271.50;6121289;23;6842;-73
2023/10/23 05:51:02;;;;;;;;;;;;;;;11.19;61.66;100275.44;6147454;23;7108;-73
2023/10/23 05:53:28;;;;;;;;;;;;;;;11.12;61.60;100270.88;6122532;23;7110;-73
2023/10/23 05:55:54;;;;;;;;;;;;;;;11.07;61.77;100270.69;6119091;23;6937;-72
2023/10/23 05:58:21;;;;;;;;;;;;;;;11.03;61.52;100270.47;6146058;23;6779;-72
2023/10/23 06:00:46;;;;;;;;;;;;;;;11.00;61.64;100270.31;6145691;23;6786;-73
2023/10/23 06:03:12;;;;;;;;;;;;;;;10.96;61.49;100265.06;6145535;23;7114;-72
2023/10/23 06:05:42;;;;;;;;;;;;;;;10.94;62.04;100268.38;6145814;23;6849;-72
2023/10/23 06:08:08;;;;;;;;;;;;;;;10.91;61.47;100274.25;6145953;23;6767;-73
2023/10/23 06:10:44;;;;;;;;;;;;;;;10.89;62.08;100272.44;6121359;23;6878;-72
2023/10/23 06:13:11;;;;;;;;;;;;;;;10.87;62.37;100272.34;6147355;23;6767;-73
2023/10/23 06:15:38;;;;;;;;;;;;;;;10.87;61.97;100266.38;6146267;23;6774;-74
2023/10/23 06:18:04;;;;;;;;;;;;;;;10.85;61.92;100266.28;6145946;23;6771;-72
2023/10/23 06:20:32;;;;;;;;;;;;;;;10.86;62.34;100273.16;6145200;23;6886;-72
2023/10/23 06:22:59;;;;;;;;;;;;;;;10.86;62.41;100275.72;6121921;23;6962;-72
2023/10/23 06:25:26;;;;;;;;;;;;;;;10.86;62.48;100278.28;6146118;23;6771;-73
2023/10/23 06:27:52;;;;;;;;;;;;;;;10.88;62.37;100278.38;6145285;23;6779;-73
2023/10/23 06:30:17;;;;;;;;;;;;;;;10.92;62.75;100280.25;6121756;23;6747;-73
2023/10/23 06:32:43;;;;;;;;;;;;;;;10.98;63.07;100286.53;6120099;23;6766;-73
2023/10/23 06:35:09;;;;;;;;;;;;;;;11.05;63.64;100279.13;6120280;23;6978;-73
2023/10/23 06:37:34;;;;;;;;;;;;;;;11.14;63.80;100283.75;6145420;23;6763;-72
2023/10/23 06:40:00;;;;;;;;;;;;;;;11.23;63.64;100287.63;6118065;23;7073;-73
2023/10/23 06:42:26;;;;;;;;;;;;;;;11.31;63.72;100281.94;6145925;23;6759;-74
2023/10/23 06:44:52;;;;;;;;;;;;;;;11.38;64.38;100286.50;6146406;23;6898;-73
2023/10/23 06:47:17;;;;;;;;;;;;;;;11.44;63.65;100279.09;6120965;23;6952;-73
2023/10/23 06:49:46;;;;;;;;;;;;;;;11.49;63.87;100282.72;6146950;23;6754;-74
2023/10/23 06:52:13;;;;;;;;;;;;;;;11.59;63.87;100286.56;6118344;23;6827;-72
2023/10/23 06:54:39;;;;;;;;;;;;;;;11.64;64.24;100292.78;6121181;23;6779;-73
2023/10/23 06:57:08;;;;;;;;;;;;;;;11.73;64.47;100296.50;6122580;23;6754;-72
2023/10/23 06:59:37;;;;;;;;;;;;;;;11.80;64.55;100290.81;6144977;23;7013;-72
2023/10/23 07:02:03;;;;;;;;;;;;;;;11.88;64.17;100298.81;6145134;23;6974;-72
2023/10/23 07:04:29;;;;;;;;;;;;;;;11.94;64.17;100293.94;6145772;23;7373;-74
2023/10/23 07:06:55;;;;;;;;;;;;;;;12.00;64.15;100296.78;6143363;23;6942;-78
2023/10/23 07:09:21;;;;;;;;;;;;;;;12.08;63.88;100292.88;6141425;23;6767;-78
2023/10/23 07:11:51;;;;;;;;;;;;;;;12.14;63.81;100296.47;6116077;23;7313;-78
2023/10/23 07:14:18;;;;;;;;;;;;;;;12.20;63.65;100299.31;6141978;23;6771;-79
2023/10/23 07:16:45;;;;;;;;;;;;;;;12.27;63.66;100296.16;6142960;23;7156;-76
2023/10/23 07:19:11;;;;;;;;;;;;;;;12.33;63.65;100298.09;6119187;23;7235;-75
2023/10/23 07:21:37;;;;;;;;;;;;;;;12.39;64.26;100297.47;6141858;23;6771;-78
2023/10/23 07:24:04;;;;;;;;;;;;;;;12.44;64.42;100294.25;6117470;23;6775;-78
2023/10/23 07:26:30;;;;;;;;;;;;;;;12.48;64.59;100288.38;6117671;23;6968;-78
2023/10/23 07:28:55;;;;;;;;;;;;;;;12.57;64.32;100295.59;6121104;23;6949;-78
2023/10/23 07:31:21;;;;;;;;;;;;;;;12.63;64.34;100287.25;6120879;23;6931;-77
2023/10/23 07:33:48;;;;;;;;;;;;;;;12.70;63.96;100288.34;6123291;23;6838;-75
2023/10/23 07:36:14;;;;;;;;;;;;;;;12.76;64.61;100283.44;6122498;23;6763;-74
2023/10/23 07:38:42;;;;;;;;;;;;;;;12.82;64.49;100275.94;6123455;23;6855;-78
2023/10/23 07:41:09;;;;;;;;;;;;;;;12.92;63.96;100275.44;6123188;23;6771;-75
2023/10/23 07:43:34;;;;;;;;;;;;;;;13.01;64.52;100269.78;6123056;23;6763;-78
2023/10/23 07:46:08;;;;;;;;;;;;;;;13.11;64.65;100265.81;6149338;23;6759;-78
2023/10/23 07:48:34;;;;;;;;;;;;;;;13.20;64.28;100261.00;6097946;23;7037;-76
2023/10/23 07:51:03;;;;;;;;;;;;;;;13.28;63.91;100257.81;6124543;23;6770;-78
2023/10/23 07:53:31;;;;;;;;;;;;;;;13.36;64.06;100253.81;6148478;23;7067;-78
2023/10/23 07:55:58;;;;;;;;;;;;;;;13.43;64.27;100257.47;6123405;23;6843;-77
2023/10/23 07:58:23;;;;;;;;;;;;;;;13.52;63.57;100251.78;6123460;23;6842;-75
2023/10/23 08:00:53;;;;;;;;;;;;;;;13.60;64.50;100247.75;6128322;23;6766;-77
2023/10/23 08:03:19;;;;;;;;;;;;;;;13.69;64.09;100254.94;6144648;23;6951;-80
2023/10/23 08:05:45;;;;;;;;;;;;;;;13.73;63.99;100249.94;6155782;23;6763;-87
2023/10/23 08:08:10;;;;;;;;;;;;;;;13.82;64.00;100245.91;6156799;23;6921;-87
2023/10/23 08:10:39;;;;;;;;;;;;;;;13.89;63.38;100255.56;6132094;23;7142;-87
2023/10/23 08:13:05;;;;;;;;;;;;;;;13.95;63.53;100258.34;6156868;23;7344;-87
2023/10/23 08:15:30;;;;;;;;;;;;;;;14.00;63.27;100259.38;6156427;23;6929;-87
2023/10/23 08:17:56;;;;;;;;;;;;;;;14.05;64.05;100259.53;6181056;23;6730;-87
2023/10/23 08:20:22;;;;;;;;;;;;;;;14.15;63.53;100266.72;6165274;23;7008;-87
2023/10/23 08:22:50;;;;;;;;;;;;;;;14.22;63.65;100257.47;6181516;23;6722;-88
2023/10/23 08:25:16;;;;;;;;;;;;;;;14.33;63.54;100259.50;6153751;23;6921;-87
2023/10/23 08:27:45;;;;;;;;;;;;;;;14.41;63.22;100260.59;6131125;23;6906;-87
2023/10/23 08:30:13;;;;;;;;;;;;;;;14.53;63.87;100260.06;6131072;23;7182;-87
2023/10/23 08:32:44;;;;;;;;;;;;;;;14.65;63.89;100257.00;6156007;23;7262;-86
2023/10/23 08:35:10;;;;;;;;;;;;;;;14.80;63.48;100257.47;6154836;23;7076;-87
2023/10/23 08:37:35;;;;;;;;;;;;;;;14.93;63.84;100247.50;6155301;23;7127;-87
2023/10/23 08:40:06;;;;;;;;;;;;;;;15.03;63.12;100246.91;6131240;23;7095;-87
2023/10/23 08:42:34;;;;;;;;;;;;;;;15.15;63.26;100236.03;6155393;23;7115;-88
2023/10/23 08:45:00;;;;;;;;;;;;;;;15.30;63.21;100234.69;6157047;23;7015;-87
2023/10/23 08:47:26;;;;;;;;;;;;;;;15.43;63.14;100241.94;6131206;23;7194;-87
2023/10/23 08:49:53;;;;;;;;;;;;;;;15.55;63.29;100237.06;6156411;23;6942;-87
2023/10/23 08:52:23;;;;;;;;;;;;;;;15.68;63.12;100230.50;6155916;23;8409;-87
2023/10/23 08:54:52;;;;;;;;;;;;;;;15.83;62.72;100234.28;6156979;23;6779;-87
2023/10/23 08:57:20;;;;;;;;;;;;;;;15.98;62.80;100227.75;6155722;23;6930;-87
2023/10/23 08:59:46;;;;;;;;;;;;;;;16.09;62.52;100234.03;6131362;23;7178;-87
2023/10/23 09:02:12;;;;;;;;;;;;;;;16.19;61.79;100227.38;6130814;23;8650;-88
2023/10/23 09:04:38;;;;;;;;;;;;;;;16.24;61.61;100234.41;6155730;23;7118;-86
2023/10/23 09:07:04;;;;;;;;;;;;;;;16.30;61.47;100235.34;6131072;23;8348;-86
2023/10/23 09:09:30;;;;;;;;;;;;;;;16.34;61.77;100234.59;6155792;23;6905;-86
2023/10/23 09:11:57;;;;;;;;;;;;;;;16.38;61.24;100237.28;6131050;23;7120;-86
2023/10/23 09:14:35;;;;;;;;;;;;;;;16.43;61.22;100232.22;6130371;23;6942;-86
2023/10/23 09:17:03;;;;;;;;;;;;;;;16.48;61.07;100219.38;6155504;23;7112;-87
2023/10/23 09:19:39;;;;;;;;;;;;;;;16.55;61.04;100216.06;6130445;23;7132;-87
2023/10/23 09:22:08;;;;;;;;;;;;;;;16.59;60.62;100206.66;6157779;23;6778;-87
2023/10/23 09:24:36;;;;;;;;;;;;;;;16.62;60.76;100196.38;6157964;23;8362;-87
2023/10/23 09:27:03;;;;;;;;;;;;;;;16.65;60.59;100202.47;6133178;23;8585;-86
2023/10/23 09:29:28;;;;;;;;;;;;;;;16.74;60.77;100199.19;6132238;23;7265;-84
2023/10/23 09:32:01;;;;;;;;;;;;;;;16.81;60.76;100192.41;6156334;23;7095;-87
2023/10/23 09:34:31;;;;;;;;;;;;;;;16.90;60.83;100197.78;6133664;23;6971;-87
2023/10/23 09:36:57;;;;;;;;;;;;;;;16.96;60.66;100199.59;6157588;23;8606;-87
2023/10/23 09:39:23;;;;;;;;;;;;;;;17.00;60.66;100190.19;6132723;23;7111;-88
2023/10/23 09:41:50;;;;;;;;;;;;;;;17.11;60.21;100196.44;6157154;23;7205;-87
2023/10/23 09:44:17;;;;;;;;;;;;;;;17.20;60.45;100195.75;6131659;23;6946;-88
2023/10/23 09:46:48;;;;;;;;;;;;;;;17.30;60.21;100186.41;6131961;23;7130;-87
2023/10/23 09:49:15;;;;;;;;;;;;;;;17.42;59.98;100188.34;6132831;23;7247;-87
2023/10/23 09:51:41;;;;;;;;;;;;;;;17.53;59.74;100181.63;6132020;23;6851;-87
2023/10/23 09:54:11;;;;;;;;;;;;;;;17.63;59.34;100191.28;6156581;23;6935;-89
2023/10/23 09:56:45;;;;;;;;;;;;;;;17.68;59.07;100177.53;6156775;23;8352;-86
2023/10/23 09:59:25;;;;;;;;;;;;;;;17.79;58.46;100183.75;6133485;23;7012;-86
2023/10/23 10:01:54;;;;;;;;;;;;;;;17.88;58.36;100178.69;6133709;23;6943;-87
2023/10/23 10:04:36;;;;;;;;;;;;;;;18.03;58.65;100178.06;6132211;23;6950;-86
2023/10/23 10:07:11;;;;;;;;;;;;;;;18.22;58.45;100173.13;6132655;23;6821;-87
2023/10/23 10:09:38;;;;;;;;;;;;;;;18.36;57.91;100169.81;6132129;23;6949;-86
2023/10/23 10:12:05;;;;;;;;;;;;;;;18.49;57.50;100171.69;6131582;23;7016;-86
2023/10/23 10:14:32;;;;;;;;;;;;;;;18.52;57.18;100168.28;6156461;23;6779;-87
2023/10/23 10:16:59;;;;;;;;;;;;;;;18.59;57.04;100159.72;6155190;23;6951;-87
2023/10/23 10:19:31;;;;;;;;;;;;;;;18.64;56.64;100157.19;6132277;23;7329;-87
2023/10/23 10:22:17;;;;;;;;;;;;;;;18.65;56.12;100154.59;6131994;23;7012;-86
2023/10/23 10:24:44;;;;;;;;;;;;;;;18.62;56.22;100151.97;6133237;23;7160;-87
2023/10/23 10:27:10;;;;;;;;;;;;;;;18.57;55.59;100148.47;6156085;23;6945;-88
2023/10/23 10:29:36;;;;;;;;;;;;;;;18.54;55.93;100151.00;6132046;23;8698;-87
2023/10/23 10:32:10;;;;;;;;;;;;;;;18.51;55.18;100145.78;6155606;23;6944;-87
2023/10/23 10:34:48;;;;;;;;;;;;;;;18.50;55.90;100150.13;6156931;23;7367;-87
2023/10/23 10:37:14;;;;;;;;;;;;;;;18.42;55.44;100152.59;6134244;23;6954;-87
2023/10/23 10:39:55;;;;;;;;;;;;;;;18.39;55.64;100152.56;6131327;23;6941;-87
2023/10/23 10:42:30;;;;;;;;;;;;;;;18.39;55.43;100152.56;6156602;23;8400;-87
2023/10/23 10:45:06;;;;;;;;;;;;;;;18.37;55.94;100148.22;6131582;23;6782;-87
2023/10/23 10:47:53;;;;;;;;;;;;;;;18.39;55.71;100136.13;6157897;23;7011;-88
2023/10/23 10:50:32;;;;;;;;;;;;;;;18.40;55.54;100136.16;6130858;23;6945;-87
2023/10/23 10:53:06;;;;;;;;;;;;;;;18.38;55.41;100129.19;6157229;23;7681;-87
2023/10/23 10:55:35;;;;;;;;;;;;;;;18.32;55.27;100119.63;6132337;23;8685;-87
2023/10/23 10:58:03;;;;;;;;;;;;;;;18.30;55.40;100131.72;6156502;23;6774;-87
2023/10/23 11:00:35;;;;;;;;;;;;;;;18.31;55.09;100133.44;6155716;23;7307;-87
2023/10/23 11:03:01;;;;;;;;;;;;;;;18.27;55.30;100116.13;6132162;23;6749;-87
2023/10/23 11:05:27;;;;;;;;;;;;;;;18.22;55.02;100107.41;6131254;23;7126;-87
2023/10/23 11:07:55;;;;;;;;;;;;;;;18.21;54.99;100113.44;6157019;23;6748;-87
2023/10/23 11:10:21;;;;;;;;;;;;;;;18.09;55.34;100107.25;6156310;23;6781;-87
2023/10/23 11:12:49;;;;;;;;;;;;;;;18.08;55.46;100107.22;6132776;23;7010;-88
2023/10/23 11:15:15;;;;;;;;;;;;;;;18.04;55.23;100099.44;6132082;23;6946;-87
2023/10/23 11:17:41;;;;;;;;;;;;;;;18.03;55.19;100076.94;6180855;23;7107;-87
2023/10/23 11:20:12;;;;;;;;;;;;;;;18.01;55.14;100090.69;6131941;23;8447;-87
2023/10/23 11:22:43;;;;;;;;;;;;;;;17.99;55.43;100088.06;6157088;23;7150;-87
2023/10/23 11:25:11;;;;;;;;;;;;;;;17.99;55.25;100076.84;6133328;23;7289;-84
2023/10/23 11:27:40;;;;;;;;;;;;;;;18.02;55.36;100075.19;6157126;23;6779;-85
2023/10/23 11:30:09;;;;;;;;;;;;;;;18.01;55.37;100073.44;6133101;23;6962;-86
2023/10/23 11:32:39;;;;;;;;;;;;;;;18.03;55.20;100065.66;6130503;23;11268;-86
2023/10/23 11:35:06;;;;;;;;;;;;;;;18.03;55.41;100063.97;6153257;23;7123;-86
2023/10/23 11:37:42;;;;;;;;;;;;;;;18.06;55.91;100049.31;6130052;23;6944;-85
2023/10/23 11:40:11;;;;;;;;;;;;;;;18.08;55.41;100060.56;6131113;23;7008;-87
2023/10/23 11:42:50;;;;;;;;;;;;;;;18.08;55.48;100047.59;6130849;23;7019;-86
2023/10/23 11:45:17;;;;;;;;;;;;;;;18.09;55.78;100049.31;6130567;23;7027;-86
2023/10/23 11:47:46;;;;;;;;;;;;;;;18.08;55.78;100043.28;6155364;23;6967;-87
2023/10/23 11:50:13;;;;;;;;;;;;;;;18.11;55.14;100040.72;6132380;23;6796;-86
2023/10/23 11:52:49;;;;;;;;;;;;;;;18.13;55.82;100045.94;6132018;23;6925;-86
2023/10/23 11:55:17;;;;;;;;;;;;;;;18.11;55.25;100038.13;6130705;23;6962;-86
2023/10/23 11:57:47;;;;;;;;;;;;;;;18.18;56.15;100034.75;6130388;23;6952;-86
2023/10/23 12:00:15;;;;;;;;;;;;;;;18.25;55.99;100021.84;6131783;23;7050;-86
2023/10/23 12:02:43;;;;;;;;;;;;;;;18.35;55.70;100017.63;6179324;23;11729;-86
2023/10/23 12:05:15;;;;;;;;;;;;;;;18.45;55.22;100011.66;6131827;23;8400;-86
2023/10/23 12:07:43;;;;;;;;;;;;;;;18.52;55.46;100013.47;6156879;23;6940;-86
2023/10/23 12:10:11;;;;;;;;;;;;;;;18.56;54.83;100004.84;6131467;23;7146;-87
2023/10/23 12:12:42;;;;;;;;;;;;;;;18.61;55.19;100002.28;6157121;23;6865;-86
2023/10/23 12:15:09;;;;;;;;;;;;;;;18.64;54.89;99999.75;6154356;23;7165;-86
2023/10/23 12:17:40;;;;;;;;;;;;;;;18.67;55.26;99989.38;6130982;23;6960;-85
2023/10/23 12:20:08;;;;;;;;;;;;;;;18.72;55.09;99986.81;6129444;23;6968;-85
2023/10/23 12:22:36;;;;;;;;;;;;;;;18.75;54.48;99981.63;6154066;23;6787;-87
2023/10/23 12:25:04;;;;;;;;;;;;;;;18.78;54.50;99989.44;6153442;23;7328;-84
2023/10/23 12:27:34;;;;;;;;;;;;;;;18.79;54.61;99979.94;6151475;23;6782;-84
2023/10/23 12:30:04;;;;;;;;;;;;;;;18.79;54.63;99972.16;6129622;23;8729;-85
2023/10/23 12:32:31;;;;;;;;;;;;;;;18.78;54.38;99962.63;6152483;23;8365;-83
2023/10/23 12:34:57;;;;;;;;;;;;;;;18.76;54.47;99964.34;6158470;23;7059;-81
2023/10/23 12:37:27;;;;;;;;;;;;;;;18.76;54.12;99957.41;6134536;23;8492;-81
2023/10/23 12:39:56;;;;;;;;;;;;;;;18.77;54.30;99951.38;6124415;23;8787;-86
2023/10/23 12:42:23;;;;;;;;;;;;;;;18.74;54.20;99949.63;6097423;23;8612;-86
2023/10/23 12:44:51;;;;;;;;;;;;;;;18.76;54.34;99948.78;6099969;23;8376;-87
2023/10/23 12:47:18;;;;;;;;;;;;;;;18.79;53.88;99948.78;6122610;23;6951;-85
2023/10/23 12:49:44;;;;;;;;;;;;;;;18.78;54.13;99937.53;6096779;23;6931;-85